createdAt,value
2019-05-22T00:00:31.381Z,20.70
2019-05-22T00:03:02.835Z,18.77
2019-05-22T00:05:36.677Z,20.50
2019-05-22T00:08:08.850Z,20.33
2019-05-22T00:10:39.292Z,19.90
2019-05-22T00:13:09.848Z,20.63
2019-05-22T00:15:39.846Z,21.27
2019-05-22T00:18:10.706Z,20.33
2019-05-22T00:20:39.505Z,21.93
2019-05-22T00:23:10.165Z,20.87
2019-05-22T00:25:40.914Z,21.53
2019-05-22T00:28:10.727Z,20.80
2019-05-22T00:30:41.492Z,21.80
2019-05-22T00:33:12.139Z,22.60
2019-05-22T00:35:42.359Z,23.00
2019-05-22T00:38:11.994Z,23.70
2019-05-22T00:40:45.236Z,23.60
2019-05-22T00:43:17.412Z,22.03
2019-05-22T00:45:49.313Z,23.23
2019-05-22T00:48:21.677Z,22.27
2019-05-22T00:50:57.645Z,22.90
2019-05-22T00:53:39.060Z,19.37
2019-05-22T00:56:13.906Z,20.07
2019-05-22T00:58:44.539Z,21.23
2019-05-22T01:01:26.844Z,18.87
2019-05-22T01:03:57.335Z,20.97
2019-05-22T01:06:29.867Z,20.73
2019-05-22T01:09:02.052Z,19.43
2019-05-22T01:11:32.522Z,21.37
2019-05-22T01:14:02.115Z,21.37
2019-05-22T01:16:31.536Z,22.67
2019-05-22T01:19:00.713Z,22.43
2019-05-22T01:21:31.102Z,23.00
2019-05-22T01:24:00.253Z,24.47
2019-05-22T01:26:29.567Z,25.60
2019-05-22T01:28:58.725Z,25.77
2019-05-22T01:31:29.804Z,28.57
2019-05-22T01:34:09.704Z,29.77
2019-05-22T01:36:43.049Z,28.67
2019-05-22T01:39:32.358Z,29.93
2019-05-22T01:42:03.338Z,30.67
2019-05-22T01:44:32.164Z,34.63
2019-05-22T01:47:04.718Z,31.53
2019-05-22T01:49:37.965Z,32.87
2019-05-22T01:52:09.175Z,33.87
2019-05-22T01:54:37.948Z,35.27
2019-05-22T01:57:06.658Z,33.97
2019-05-22T01:59:36.702Z,32.67
2019-05-22T02:02:07.214Z,32.60
2019-05-22T02:04:36.180Z,34.47
2019-05-22T02:07:07.637Z,33.43
2019-05-22T02:09:41.707Z,33.10
2019-05-22T02:12:15.215Z,35.10
2019-05-22T02:14:48.636Z,35.47
2019-05-22T02:17:20.230Z,35.43
2019-05-22T02:19:48.855Z,34.30
2019-05-22T02:22:19.123Z,37.70
2019-05-22T02:24:50.198Z,35.47
2019-05-22T02:27:20.077Z,37.47
2019-05-22T02:29:49.467Z,37.90
2019-05-22T02:32:20.667Z,37.17
2019-05-22T02:34:50.403Z,37.20
2019-05-22T02:37:20.459Z,37.47
2019-05-22T02:39:49.291Z,37.80
2019-05-22T02:42:28.517Z,35.27
2019-05-22T02:44:58.576Z,36.20
2019-05-22T02:47:29.281Z,36.17
2019-05-22T02:49:58.600Z,36.83
2019-05-22T02:52:27.231Z,35.30
2019-05-22T02:54:56.744Z,36.10
2019-05-22T02:57:26.576Z,36.77
2019-05-22T02:59:56.173Z,35.93
2019-05-22T03:02:26.733Z,36.93
2019-05-22T03:04:59.627Z,36.83
2019-05-22T03:07:30.078Z,35.87
2019-05-22T03:10:01.368Z,37.57
2019-05-22T03:12:32.505Z,36.50
2019-05-22T03:15:02.574Z,35.73
2019-05-22T03:17:32.327Z,38.47
2019-05-22T03:20:04.850Z,38.00
2019-05-22T03:22:42.527Z,38.70
2019-05-22T03:25:13.578Z,36.23
2019-05-22T03:27:49.535Z,39.20
2019-05-22T03:30:34.058Z,38.70
2019-05-22T03:33:05.058Z,38.50
2019-05-22T03:35:46.344Z,37.87
2019-05-22T03:38:17.806Z,37.60
2019-05-22T03:40:46.384Z,39.80
2019-05-22T03:43:21.562Z,37.83
2019-05-22T03:45:50.975Z,38.37
2019-05-22T03:48:21.494Z,37.33
2019-05-22T03:50:52.203Z,38.50
2019-05-22T03:53:21.000Z,40.00
2019-05-22T03:55:50.866Z,38.63
2019-05-22T03:58:30.998Z,36.90
2019-05-22T04:00:59.701Z,39.60
2019-05-22T04:03:38.699Z,38.30
2019-05-22T04:06:08.794Z,39.23
2019-05-22T04:08:38.678Z,37.73
2019-05-22T04:11:10.212Z,38.60
2019-05-22T04:13:40.401Z,39.40
2019-05-22T04:16:13.978Z,39.10
2019-05-22T04:18:43.595Z,39.87
2019-05-22T04:21:12.610Z,39.13
2019-05-22T04:23:41.800Z,36.67
2019-05-22T04:26:12.605Z,39.13
2019-05-22T04:28:47.922Z,38.07
2019-05-22T04:31:18.580Z,36.83
2019-05-22T04:33:47.477Z,37.53
2019-05-22T04:36:16.989Z,37.13
2019-05-22T04:38:46.408Z,35.07
2019-05-22T04:41:17.428Z,35.77
2019-05-22T04:43:46.854Z,37.27
2019-05-22T04:46:16.060Z,37.80
2019-05-22T04:48:46.474Z,37.53
2019-05-22T04:51:26.696Z,37.57
2019-05-22T04:53:56.214Z,38.43
2019-05-22T04:56:25.805Z,35.33
2019-05-22T04:58:55.467Z,34.83
2019-05-22T05:01:24.939Z,33.13
2019-05-22T05:03:54.105Z,33.17
2019-05-22T05:06:23.916Z,32.70
2019-05-22T05:08:53.445Z,34.40
2019-05-22T05:11:22.779Z,32.57
2019-05-22T05:13:51.650Z,32.60
2019-05-22T05:16:20.707Z,32.27
2019-05-22T05:18:49.568Z,33.70
2019-05-22T05:21:18.675Z,34.07
2019-05-22T05:23:47.317Z,33.37
2019-05-22T05:26:16.785Z,32.87
2019-05-22T05:28:45.747Z,31.10
2019-05-22T05:31:15.201Z,30.30
2019-05-22T05:34:13.058Z,31.27
2019-05-22T05:36:42.800Z,31.97
2019-05-22T05:39:15.140Z,30.73
2019-05-22T05:41:44.142Z,30.57
2019-05-22T05:44:12.900Z,30.27
2019-05-22T05:46:41.483Z,31.30
2019-05-22T05:49:11.339Z,28.47
2019-05-22T05:51:42.882Z,27.20
2019-05-22T05:54:13.055Z,27.83
2019-05-22T05:56:43.679Z,27.13
2019-05-22T05:59:14.357Z,26.23
2019-05-22T06:01:47.923Z,26.37
2019-05-22T06:04:33.899Z,25.63
2019-05-22T06:07:00.663Z,25.80
2019-05-22T06:09:28.577Z,25.77
2019-05-22T06:11:59.686Z,24.47
2019-05-22T06:14:31.382Z,24.73
2019-05-22T06:17:07.698Z,25.07
2019-05-22T06:19:42.782Z,25.00
2019-05-22T06:22:11.627Z,24.77
2019-05-22T06:24:52.058Z,25.30
2019-05-22T06:27:24.529Z,26.27
2019-05-22T06:29:57.457Z,26.10
2019-05-22T06:32:38.003Z,32.77
2019-05-22T06:35:08.011Z,30.33
2019-05-22T06:37:42.766Z,32.00
2019-05-22T06:40:13.122Z,30.87
2019-05-22T06:42:44.928Z,33.53
2019-05-22T06:45:13.745Z,34.23
2019-05-22T06:47:42.746Z,33.83
2019-05-22T06:50:11.737Z,32.87
2019-05-22T06:52:40.329Z,34.63
2019-05-22T06:55:09.517Z,33.97
2019-05-22T06:57:38.598Z,34.67
2019-05-22T07:00:14.139Z,32.17
2019-05-22T07:02:41.005Z,34.00
2019-05-22T07:05:10.566Z,33.63
2019-05-22T07:07:39.597Z,35.87
2019-05-22T07:10:10.607Z,36.07
2019-05-22T07:12:40.311Z,35.17
2019-05-22T07:15:18.630Z,32.83
2019-05-22T07:17:47.928Z,33.80
2019-05-22T07:20:18.254Z,31.60
2019-05-22T07:22:47.448Z,33.13
2019-05-22T07:25:18.394Z,32.70
2019-05-22T07:27:47.762Z,32.07
2019-05-22T07:30:17.609Z,28.33
2019-05-22T07:32:46.292Z,30.47
2019-05-22T07:35:16.475Z,31.13
2019-05-22T07:37:47.454Z,29.93
2019-05-22T07:40:18.586Z,27.03
2019-05-22T07:42:47.551Z,27.73
2019-05-22T07:45:16.663Z,27.77
2019-05-22T07:47:45.577Z,26.83
2019-05-22T07:50:15.807Z,24.30
2019-05-22T07:52:44.390Z,23.57
2019-05-22T07:55:14.504Z,24.80
2019-05-22T07:57:46.910Z,25.17
2019-05-22T08:00:16.746Z,26.57
2019-05-22T08:02:50.295Z,26.00
2019-05-22T08:05:21.680Z,26.87
2019-05-22T08:07:51.939Z,26.30
2019-05-22T08:10:22.041Z,28.30
2019-05-22T08:12:52.166Z,28.80
2019-05-22T08:15:22.788Z,30.40
2019-05-22T08:17:52.299Z,29.73
2019-05-22T08:20:21.594Z,29.50
2019-05-22T08:22:51.590Z,29.23
2019-05-22T08:25:20.568Z,28.47
2019-05-22T08:27:51.641Z,28.57
2019-05-22T08:30:20.698Z,26.90
2019-05-22T08:32:50.240Z,26.07
2019-05-22T08:35:19.250Z,27.93
2019-05-22T08:37:50.099Z,27.43
2019-05-22T08:40:20.352Z,26.80
2019-05-22T08:42:49.104Z,26.67
2019-05-22T08:45:19.524Z,26.93
2019-05-22T08:47:48.485Z,28.63
2019-05-22T08:50:23.306Z,27.27
2019-05-22T08:52:52.428Z,27.83
2019-05-22T08:55:25.111Z,28.20
2019-05-22T08:58:12.179Z,27.10
2019-05-22T09:17:52.858Z,25.83
2019-05-22T09:27:07.094Z,24.77
2019-05-22T09:29:35.972Z,25.47
2019-05-22T09:32:05.953Z,24.67
2019-05-22T09:34:45.743Z,26.53
2019-05-22T09:40:51.729Z,26.23
2019-05-22T09:53:40.849Z,23.20
2019-05-22T10:26:55.908Z,18.17
2019-05-22T12:07:26.960Z,7.53
2019-05-22T13:01:30.195Z,14.63
2019-05-22T13:03:59.244Z,14.07
2019-05-22T13:38:25.777Z,15.27
2019-05-22T13:40:54.808Z,16.60
2019-05-22T13:43:24.126Z,16.57
2019-05-22T13:45:53.184Z,16.73
2019-05-22T13:48:22.120Z,16.87
2019-05-22T13:50:50.912Z,18.03
2019-05-22T13:53:21.645Z,17.53
2019-05-22T13:55:50.846Z,15.93
2019-05-22T13:58:21.750Z,17.23
2019-05-22T14:00:51.012Z,17.07
2019-05-22T14:03:20.655Z,17.27
2019-05-22T14:05:51.817Z,17.63
2019-05-22T14:08:21.249Z,17.83
2019-05-22T14:10:51.800Z,17.37
2019-05-22T14:13:22.071Z,18.47
2019-05-22T14:15:56.461Z,18.47
2019-05-22T14:18:21.402Z,18.20
2019-05-22T14:20:50.467Z,18.63
2019-05-22T14:23:19.281Z,18.77
2019-05-22T14:25:48.986Z,17.70
2019-05-22T14:28:17.919Z,18.23
2019-05-22T14:30:46.718Z,18.43
2019-05-22T14:33:15.472Z,17.30
2019-05-22T14:42:53.157Z,16.03
2019-05-22T15:45:50.781Z,11.07
2019-05-22T15:48:30.308Z,10.97
2019-05-22T15:51:04.349Z,11.70
2019-05-22T15:53:35.989Z,11.90
2019-05-22T15:56:06.531Z,11.30
2019-05-22T15:58:37.567Z,10.67
2019-05-22T16:09:51.193Z,10.33
2019-05-22T16:12:19.981Z,10.57
2019-05-22T16:14:54.149Z,10.67
2019-05-22T16:17:24.840Z,10.27
2019-05-22T16:19:55.353Z,9.43
2019-05-22T16:22:25.687Z,8.93
2019-05-22T16:24:57.026Z,9.70
2019-05-22T16:27:26.029Z,9.60
2019-05-22T16:29:55.417Z,9.03
2019-05-22T16:32:24.198Z,9.97
2019-05-22T16:34:53.212Z,9.10
2019-05-22T16:37:22.041Z,10.20
2019-05-22T16:39:51.280Z,6.63
2019-05-22T16:42:21.420Z,5.70
2019-05-22T16:44:50.280Z,4.67
2019-05-22T16:47:21.604Z,5.57
2019-05-22T16:49:51.907Z,5.57
2019-05-22T16:52:21.088Z,5.20
2019-05-22T16:54:49.603Z,5.57
2019-05-22T16:57:19.111Z,5.23
2019-05-22T16:59:48.058Z,5.93
2019-05-22T17:02:19.081Z,6.00
2019-05-22T17:04:48.478Z,5.93
2019-05-22T17:07:18.445Z,6.03
2019-05-22T17:09:49.769Z,6.30
2019-05-22T17:12:18.971Z,5.60
2019-05-22T17:14:49.410Z,4.70
2019-05-22T17:17:19.470Z,5.67
2019-05-22T17:19:48.754Z,5.90
2019-05-22T17:22:18.843Z,5.27
2019-05-22T17:24:48.583Z,5.40
2019-05-22T17:27:18.654Z,5.00
2019-05-22T17:29:49.196Z,5.87
2019-05-22T17:32:18.440Z,4.97
2019-05-22T17:34:47.014Z,5.67
2019-05-22T17:37:16.027Z,5.20
2019-05-22T17:39:46.803Z,5.03
2019-05-22T17:45:38.310Z,4.87
2019-05-22T17:57:55.142Z,5.80
2019-05-22T18:01:20.298Z,5.70
2019-05-22T18:07:01.826Z,5.93
2019-05-22T18:09:30.426Z,6.23
2019-05-22T18:15:36.769Z,5.50
2019-05-22T18:20:57.093Z,6.33
2019-05-22T18:23:26.190Z,6.07
2019-05-22T18:25:54.810Z,6.87
2019-05-22T18:28:28.358Z,7.23
2019-05-22T18:30:57.408Z,6.83
2019-05-22T18:33:33.812Z,7.70
2019-05-22T18:36:05.437Z,9.17
2019-05-22T18:38:52.056Z,9.03
2019-05-22T19:23:58.125Z,11.83
2019-05-22T19:29:37.465Z,10.03
2019-05-22T19:32:02.095Z,11.03
2019-05-22T19:34:31.141Z,9.77
2019-05-22T19:37:08.011Z,10.80
2019-05-22T19:39:44.044Z,10.60
2019-05-22T19:45:31.950Z,10.47
2019-05-22T19:48:11.249Z,10.33
2019-05-22T19:53:25.802Z,11.03
2019-05-22T19:55:54.844Z,9.30
2019-05-22T19:58:23.845Z,10.07
2019-05-22T20:01:03.134Z,10.30
2019-05-22T20:03:40.879Z,10.83
2019-05-22T20:06:10.492Z,9.90
2019-05-22T20:08:39.361Z,9.47
2019-05-22T20:11:08.443Z,8.73
2019-05-22T20:13:43.436Z,9.07
2019-05-22T20:16:13.166Z,9.90
2019-05-22T20:18:42.259Z,9.37
2019-05-22T20:21:13.528Z,9.20
2019-05-22T20:23:42.471Z,10.20
2019-05-22T20:26:14.737Z,10.33
2019-05-22T20:28:43.934Z,10.23
2019-05-22T20:31:13.073Z,9.30
2019-05-22T20:33:42.559Z,10.10
2019-05-22T20:36:12.159Z,9.60
2019-05-22T20:38:41.440Z,9.57
2019-05-22T20:41:10.337Z,9.23
2019-05-22T20:43:40.725Z,10.67
2019-05-22T20:46:09.595Z,9.47
2019-05-22T20:48:38.896Z,9.20
2019-05-22T20:51:09.220Z,9.93
2019-05-22T20:53:52.851Z,9.40
2019-05-22T20:56:12.058Z,9.43
2019-05-22T20:58:42.739Z,9.20
2019-05-22T21:01:12.967Z,8.77
2019-05-22T21:03:44.743Z,10.73
2019-05-22T21:09:21.800Z,9.43
2019-05-22T21:36:29.716Z,6.27
2019-05-22T21:38:58.644Z,7.43
2019-05-22T21:41:28.361Z,9.63
2019-05-22T21:43:58.020Z,9.50
2019-05-22T21:46:26.885Z,9.90
2019-05-22T22:07:29.482Z,10.47
2019-05-22T22:09:59.208Z,9.83
2019-05-22T22:12:28.112Z,11.27
2019-05-22T22:14:57.191Z,9.53
2019-05-22T22:17:27.728Z,9.87
2019-05-22T22:19:57.121Z,11.00
2019-05-22T22:22:27.621Z,10.17
2019-05-22T22:24:56.718Z,10.63
2019-05-22T22:27:26.254Z,10.13
2019-05-22T22:29:55.991Z,9.97
2019-05-22T22:32:26.548Z,10.07
2019-05-22T22:34:55.598Z,8.53
2019-05-22T22:37:26.177Z,8.67
2019-05-22T22:39:57.044Z,8.27
2019-05-22T22:42:29.251Z,9.03
2019-05-22T22:44:59.437Z,9.97
2019-05-22T22:47:30.182Z,9.10
2019-05-22T22:50:00.352Z,10.87
2019-05-22T22:52:30.205Z,10.23
2019-05-22T22:55:00.689Z,10.10
2019-05-22T22:57:30.339Z,9.97
2019-05-22T22:59:59.208Z,9.13
2019-05-22T23:02:30.903Z,10.27
2019-05-22T23:05:00.561Z,10.60
2019-05-22T23:07:32.092Z,9.13
2019-05-22T23:10:01.179Z,7.67
2019-05-22T23:12:30.069Z,8.87
2019-05-22T23:15:00.617Z,8.70
2019-05-22T23:17:30.023Z,7.77
2019-05-22T23:19:58.676Z,9.00
2019-05-22T23:22:27.689Z,8.03
2019-05-22T23:24:58.144Z,8.47
2019-05-22T23:27:27.600Z,7.23
2019-05-22T23:29:57.381Z,7.03
2019-05-22T23:32:27.055Z,5.90
2019-05-22T23:34:56.689Z,5.47
2019-05-22T23:37:26.575Z,4.63
2019-05-22T23:39:55.975Z,5.07
2019-05-22T23:42:28.600Z,5.67
2019-05-22T23:44:58.315Z,5.40
2019-05-22T23:47:28.096Z,5.83
2019-05-22T23:49:58.395Z,6.57
2019-05-22T23:52:28.185Z,7.43
2019-05-22T23:54:57.487Z,6.90
2019-05-22T23:57:27.152Z,6.50
2019-05-22T23:59:57.095Z,7.80
